createdAt,value
2023-05-10T00:00:40.875Z,911.35
2023-05-10T00:03:07.397Z,901.78
2023-05-10T00:05:33.857Z,897.40
2023-05-10T00:08:00.345Z,879.15
2023-05-10T00:10:26.675Z,893.88
2023-05-10T00:12:53.197Z,886.65
2023-05-10T00:15:19.693Z,896.63
2023-05-10T00:17:46.063Z,893.55
2023-05-10T00:20:12.734Z,893.08
2023-05-10T00:22:39.208Z,891.75
2023-05-10T00:25:07.031Z,871.22
2023-05-10T00:27:33.520Z,892.60
2023-05-10T00:29:59.858Z,902.35
2023-05-10T00:32:26.266Z,916.25
2023-05-10T00:34:52.924Z,898.78
2023-05-10T00:37:19.257Z,908.28
2023-05-10T00:39:45.683Z,905.78
2023-05-10T00:42:12.024Z,900.95
2023-05-10T00:44:38.415Z,910.97
2023-05-10T00:47:04.884Z,890.13
2023-05-10T00:49:32.176Z,904.75
2023-05-10T00:51:59.018Z,911.17
2023-05-10T00:54:25.583Z,894.70
2023-05-10T00:56:52.612Z,889.95
2023-05-10T00:59:19.809Z,895.83
2023-05-10T01:01:46.789Z,904.10
2023-05-10T01:04:14.427Z,914.30
2023-05-10T01:06:41.948Z,906.28
2023-05-10T01:09:08.559Z,902.13
2023-05-10T01:11:39.438Z,883.42
2023-05-10T01:14:07.010Z,907.15
2023-05-10T01:16:38.021Z,899.05
2023-05-10T01:19:09.351Z,917.22
2023-05-10T01:22:20.079Z,898.05
2023-05-10T01:25:20.916Z,865.40
2023-05-10T01:28:14.834Z,873.30
2023-05-10T01:30:56.401Z,872.10
2023-05-10T01:33:36.588Z,877.17
2023-05-10T01:36:11.879Z,877.30
2023-05-10T01:38:44.694Z,898.00
2023-05-10T01:41:19.347Z,867.20
2023-05-10T01:44:00.802Z,887.90
2023-05-10T01:46:37.990Z,905.25
2023-05-10T01:49:10.536Z,888.97
2023-05-10T01:51:48.447Z,881.78
2023-05-10T01:54:18.327Z,882.17
2023-05-10T01:56:46.508Z,879.15
2023-05-10T01:59:16.334Z,894.72
2023-05-10T02:01:44.107Z,903.05
2023-05-10T02:04:12.123Z,891.45
2023-05-10T02:06:40.327Z,896.63
2023-05-10T02:09:08.544Z,912.75
2023-05-10T02:11:35.549Z,907.60
2023-05-10T02:14:02.695Z,905.42
2023-05-10T02:16:31.815Z,900.53
2023-05-10T02:19:00.533Z,908.25
2023-05-10T02:21:28.138Z,906.08
2023-05-10T02:23:56.292Z,907.70
2023-05-10T02:26:24.655Z,914.67
2023-05-10T02:28:52.774Z,887.25
2023-05-10T02:31:20.628Z,924.75
2023-05-10T02:33:49.058Z,906.10
2023-05-10T02:36:17.329Z,894.83
2023-05-10T02:38:45.473Z,910.30
2023-05-10T02:41:13.011Z,885.97
2023-05-10T02:43:41.771Z,903.20
2023-05-10T02:46:08.342Z,877.97
2023-05-10T02:48:34.822Z,907.10
2023-05-10T02:51:06.716Z,903.90
2023-05-10T02:53:36.470Z,888.08
2023-05-10T02:56:11.997Z,891.47
2023-05-10T02:58:38.400Z,888.38
2023-05-10T03:01:05.006Z,910.03
2023-05-10T03:03:31.460Z,902.65
2023-05-10T03:05:58.901Z,905.10
2023-05-10T03:08:25.851Z,884.35
2023-05-10T03:11:18.784Z,899.38
2023-05-10T03:13:57.535Z,871.20
2023-05-10T03:16:30.346Z,879.38
2023-05-10T03:19:11.345Z,900.72
2023-05-10T03:21:42.706Z,900.08
2023-05-10T03:24:12.930Z,908.63
2023-05-10T03:26:39.986Z,900.13
2023-05-10T03:29:09.019Z,908.38
2023-05-10T03:31:35.697Z,909.53
2023-05-10T03:34:02.248Z,900.88
2023-05-10T03:36:28.718Z,886.40
2023-05-10T03:38:55.537Z,894.45
2023-05-10T03:41:22.292Z,894.17
2023-05-10T03:43:48.700Z,903.45
2023-05-10T03:46:15.201Z,890.65
2023-05-10T03:48:41.590Z,882.90
2023-05-10T03:51:07.981Z,879.42
2023-05-10T03:53:34.379Z,890.83
2023-05-10T03:56:00.910Z,882.40
2023-05-10T03:58:27.299Z,864.78
2023-05-10T04:00:53.837Z,853.53
2023-05-10T04:03:21.214Z,857.22
2023-05-10T04:05:47.853Z,859.78
2023-05-10T04:08:15.747Z,863.10
2023-05-10T04:10:42.156Z,847.97
2023-05-10T04:13:08.530Z,849.67
2023-05-10T04:15:34.968Z,841.28
2023-05-10T04:18:01.371Z,835.42
2023-05-10T04:20:27.817Z,858.53
2023-05-10T04:22:54.564Z,837.58
2023-05-10T04:25:20.995Z,832.90
2023-05-10T04:27:47.378Z,809.15
2023-05-10T04:30:13.966Z,828.63
2023-05-10T04:32:40.435Z,828.40
2023-05-10T04:35:07.091Z,825.58
2023-05-10T04:37:33.507Z,827.95
2023-05-10T04:40:00.928Z,823.45
2023-05-10T04:42:27.344Z,825.13
2023-05-10T04:44:53.918Z,831.92
2023-05-10T04:47:20.298Z,820.10
2023-05-10T04:49:49.808Z,830.92
2023-05-10T04:52:18.323Z,816.83
2023-05-10T04:54:45.026Z,803.65
2023-05-10T04:57:11.509Z,815.78
2023-05-10T04:59:38.562Z,825.90
2023-05-10T05:02:06.013Z,798.88
2023-05-10T05:04:35.626Z,822.22
2023-05-10T05:07:02.068Z,811.92
2023-05-10T05:09:28.421Z,834.25
2023-05-10T05:11:54.806Z,803.45
2023-05-10T05:14:22.032Z,805.17
2023-05-10T05:16:48.416Z,810.50
2023-05-10T05:19:14.826Z,813.50
2023-05-10T05:21:41.290Z,800.10
2023-05-10T05:24:08.097Z,803.15
2023-05-10T05:26:34.587Z,802.88
2023-05-10T05:29:01.018Z,816.88
2023-05-10T05:31:27.374Z,839.63
2023-05-10T05:33:53.745Z,810.53
2023-05-10T05:36:20.079Z,826.92
2023-05-10T05:38:46.521Z,820.33
2023-05-10T05:41:13.036Z,816.53
2023-05-10T05:43:39.372Z,827.55
2023-05-10T05:46:06.124Z,839.22
2023-05-10T05:48:32.554Z,830.20
2023-05-10T05:50:58.968Z,841.38
2023-05-10T05:53:25.855Z,843.97
2023-05-10T05:55:54.187Z,838.15
2023-05-10T05:58:21.271Z,838.58
2023-05-10T06:00:47.728Z,848.08
2023-05-10T06:03:14.225Z,839.80
2023-05-10T06:05:40.799Z,836.88
2023-05-10T06:08:07.301Z,832.40
2023-05-10T06:10:33.641Z,831.95
2023-05-10T06:13:00.130Z,832.08
2023-05-10T06:15:27.035Z,838.70
2023-05-10T06:17:53.437Z,844.85
2023-05-10T06:20:19.875Z,867.30
2023-05-10T06:22:46.320Z,870.60
2023-05-10T06:25:12.724Z,871.35
2023-05-10T06:27:39.057Z,866.65
2023-05-10T06:30:12.997Z,853.15
2023-05-10T06:32:40.104Z,869.53
2023-05-10T06:35:07.248Z,848.70
2023-05-10T06:37:33.693Z,854.17
2023-05-10T06:40:00.206Z,841.53
2023-05-10T06:42:26.736Z,820.15
2023-05-10T06:44:53.114Z,842.15
2023-05-10T06:47:19.546Z,848.75
2023-05-10T06:49:45.981Z,845.63
2023-05-10T06:52:12.361Z,853.10
2023-05-10T06:54:41.052Z,858.15
2023-05-10T06:57:16.095Z,853.13
2023-05-10T06:59:50.144Z,842.25
2023-05-10T07:02:16.558Z,853.53
2023-05-10T07:04:43.139Z,848.55
2023-05-10T07:07:09.697Z,849.85
2023-05-10T07:09:36.294Z,851.90
2023-05-10T07:12:02.856Z,858.13
2023-05-10T07:14:29.377Z,872.35
2023-05-10T07:16:56.060Z,876.00
2023-05-10T07:19:22.748Z,876.70
2023-05-10T07:21:49.140Z,879.15
2023-05-10T07:24:15.476Z,878.88
2023-05-10T07:26:41.821Z,889.00
2023-05-10T07:29:08.153Z,869.13
2023-05-10T07:31:34.528Z,853.88
2023-05-10T07:34:00.921Z,814.22
2023-05-10T07:36:27.328Z,761.35
2023-05-10T07:38:53.665Z,734.50
2023-05-10T07:41:20.063Z,742.42
2023-05-10T07:43:46.381Z,616.72
2023-05-10T07:46:12.726Z,539.70
2023-05-10T07:48:41.710Z,380.05
2023-05-10T07:51:10.254Z,297.20
2023-05-10T07:53:36.608Z,406.00
2023-05-10T07:56:30.212Z,318.95
2023-05-10T07:58:57.424Z,327.98
2023-05-10T08:01:24.226Z,228.52
2023-05-10T08:03:51.991Z,226.80
2023-05-10T08:06:19.571Z,236.88
2023-05-10T08:08:53.136Z,256.75
2023-05-10T08:11:21.282Z,196.63
2023-05-10T08:13:49.126Z,242.55
2023-05-10T08:16:15.576Z,313.05
2023-05-10T08:18:42.365Z,343.67
2023-05-10T08:21:08.856Z,386.48
2023-05-10T08:23:35.242Z,456.85
2023-05-10T08:26:01.682Z,500.25
2023-05-10T08:28:28.139Z,469.40
2023-05-10T08:30:54.642Z,423.88
2023-05-10T08:33:21.448Z,278.38
2023-05-10T08:35:47.786Z,191.18
2023-05-10T08:38:14.213Z,199.85
2023-05-10T08:40:42.875Z,272.98
2023-05-10T08:43:11.481Z,263.42
2023-05-10T08:45:43.526Z,154.18
2023-05-10T08:48:11.352Z,117.18
2023-05-10T08:50:39.420Z,116.88
2023-05-10T08:53:10.611Z,129.32
2023-05-10T08:55:39.379Z,117.70
2023-05-10T08:58:09.631Z,103.60
2023-05-10T09:00:38.281Z,137.35
2023-05-10T09:03:05.986Z,188.05
2023-05-10T09:05:32.895Z,202.60
2023-05-10T09:08:01.454Z,265.27
2023-05-10T09:10:29.122Z,263.95
2023-05-10T09:12:59.221Z,237.75
2023-05-10T09:15:26.606Z,248.57
2023-05-10T09:17:53.297Z,277.35
2023-05-10T09:20:19.880Z,298.08
2023-05-10T09:22:46.425Z,275.15
2023-05-10T09:25:15.327Z,253.90
2023-05-10T09:27:46.264Z,207.43
2023-05-10T09:30:25.932Z,202.80
2023-05-10T09:32:52.493Z,141.35
2023-05-10T09:35:22.260Z,150.52
2023-05-10T09:37:55.082Z,124.68
2023-05-10T09:40:23.498Z,138.27
2023-05-10T09:43:01.999Z,100.35
2023-05-10T09:45:30.613Z,87.15
2023-05-10T09:47:58.332Z,92.03
2023-05-10T09:50:25.070Z,127.78
2023-05-10T09:52:53.336Z,102.85
2023-05-10T09:55:25.744Z,89.82
2023-05-10T09:58:02.825Z,97.57
2023-05-10T10:00:35.070Z,93.45
2023-05-10T10:03:01.690Z,112.63
2023-05-10T10:05:37.964Z,102.97
2023-05-10T10:08:05.764Z,99.35
2023-05-10T10:10:33.484Z,104.53
2023-05-10T10:13:03.764Z,95.57
2023-05-10T10:15:30.424Z,78.20
2023-05-10T10:17:56.892Z,81.88
2023-05-10T10:20:23.802Z,84.15
2023-05-10T10:22:50.434Z,95.70
2023-05-10T10:25:18.418Z,104.20
2023-05-10T10:27:51.045Z,90.38
2023-05-10T10:30:38.229Z,104.03
2023-05-10T10:33:27.227Z,94.55
2023-05-10T10:35:56.354Z,99.47
2023-05-10T10:38:23.634Z,98.90
2023-05-10T10:41:03.244Z,80.45
2023-05-10T10:43:30.285Z,87.35
2023-05-10T10:46:18.105Z,86.25
2023-05-10T10:49:09.321Z,81.38
2023-05-10T10:52:36.987Z,88.43
2023-05-10T10:55:19.195Z,97.18
2023-05-10T10:57:52.916Z,110.93
2023-05-10T11:00:19.603Z,91.32
2023-05-10T11:02:49.750Z,84.93
2023-05-10T11:05:28.549Z,89.22
2023-05-10T11:07:56.201Z,89.80
2023-05-10T11:10:23.859Z,87.35
2023-05-10T11:12:54.605Z,87.43
2023-05-10T11:15:21.480Z,91.47
2023-05-10T11:17:52.869Z,87.45
2023-05-10T11:20:23.840Z,85.53
2023-05-10T11:22:54.382Z,83.65
2023-05-10T11:25:21.415Z,89.68
2023-05-10T11:27:49.214Z,88.82
2023-05-10T11:30:16.145Z,87.30
2023-05-10T11:32:43.233Z,93.18
2023-05-10T11:35:11.409Z,94.10
2023-05-10T11:37:42.174Z,118.00
2023-05-10T11:40:10.898Z,123.18
2023-05-10T11:42:40.509Z,120.85
2023-05-10T11:45:07.513Z,113.32
2023-05-10T11:47:33.973Z,116.25
2023-05-10T11:50:00.992Z,113.85
2023-05-10T11:52:27.326Z,126.93
2023-05-10T11:54:54.774Z,127.55
2023-05-10T11:57:22.154Z,109.88
2023-05-10T11:59:48.544Z,93.70
2023-05-10T12:02:15.133Z,91.90
2023-05-10T12:04:42.601Z,84.55
2023-05-10T12:07:09.045Z,89.13
2023-05-10T12:09:43.940Z,103.57
2023-05-10T12:12:11.081Z,84.45
2023-05-10T12:14:37.505Z,64.03
2023-05-10T12:17:03.926Z,65.78
2023-05-10T12:19:38.613Z,59.08
2023-05-10T12:22:08.089Z,42.40
2023-05-10T12:24:36.256Z,49.58
2023-05-10T12:27:08.231Z,51.70
2023-05-10T12:29:34.624Z,55.67
2023-05-10T12:32:01.218Z,50.70
2023-05-10T12:34:31.770Z,50.05
2023-05-10T12:36:59.656Z,52.88
2023-05-10T12:39:26.242Z,52.25
2023-05-10T12:41:53.546Z,53.60
2023-05-10T12:44:24.943Z,46.63
2023-05-10T12:46:51.436Z,45.33
2023-05-10T12:49:19.847Z,53.53
2023-05-10T12:51:46.234Z,51.10
2023-05-10T12:54:12.824Z,47.20
2023-05-10T12:56:39.158Z,34.53
2023-05-10T12:59:07.881Z,34.25
2023-05-10T13:01:34.365Z,31.95
2023-05-10T13:04:01.192Z,34.47
2023-05-10T13:06:27.536Z,33.90
2023-05-10T13:08:53.940Z,28.25
2023-05-10T13:11:21.026Z,21.25
2023-05-10T13:13:47.394Z,21.13
2023-05-10T13:16:14.072Z,24.92
2023-05-10T13:18:42.962Z,23.60
2023-05-10T13:21:09.361Z,29.23
2023-05-10T13:23:35.899Z,25.80
2023-05-10T13:26:02.237Z,21.05
2023-05-10T13:28:28.896Z,18.88
2023-05-10T13:30:55.251Z,19.58
2023-05-10T13:33:21.637Z,19.90
2023-05-10T13:35:48.130Z,25.73
2023-05-10T13:38:14.761Z,21.50
2023-05-10T13:40:46.984Z,26.88
2023-05-10T13:43:13.758Z,19.50
2023-05-10T13:45:40.179Z,23.55
2023-05-10T13:48:06.772Z,26.90
2023-05-10T13:50:33.209Z,25.40
2023-05-10T13:52:59.563Z,24.92
2023-05-10T13:55:26.096Z,19.73
2023-05-10T13:57:52.801Z,19.92
2023-05-10T14:00:19.471Z,25.92
2023-05-10T14:02:45.934Z,19.27
2023-05-10T14:05:12.880Z,19.95
2023-05-10T14:07:39.584Z,18.65
2023-05-10T14:10:06.410Z,17.42
2023-05-10T14:12:33.057Z,16.80
2023-05-10T14:14:59.472Z,16.92
2023-05-10T14:17:25.930Z,16.55
2023-05-10T14:19:53.774Z,14.73
2023-05-10T14:22:20.451Z,14.68
2023-05-10T14:24:47.897Z,13.13
2023-05-10T14:27:14.365Z,12.65
2023-05-10T14:29:40.773Z,13.27
2023-05-10T14:32:07.491Z,12.52
2023-05-10T14:34:34.144Z,16.20
2023-05-10T14:37:00.543Z,17.40
2023-05-10T14:39:30.358Z,16.63
2023-05-10T14:41:57.200Z,15.95
2023-05-10T14:44:24.608Z,17.08
2023-05-10T14:46:51.388Z,16.00
2023-05-10T14:49:17.711Z,17.55
2023-05-10T14:51:44.037Z,13.55
2023-05-10T14:54:10.335Z,12.60
2023-05-10T14:56:39.901Z,11.55
2023-05-10T14:59:15.588Z,13.65
2023-05-10T15:01:45.145Z,10.88
2023-05-10T15:04:13.843Z,12.65
2023-05-10T15:06:40.767Z,12.52
2023-05-10T15:09:07.114Z,13.25
2023-05-10T15:11:33.657Z,13.32
2023-05-10T15:14:01.236Z,15.60
2023-05-10T15:16:27.666Z,16.70
2023-05-10T15:18:54.117Z,17.55
2023-05-10T15:21:20.544Z,17.20
2023-05-10T15:23:47.235Z,16.35
2023-05-10T15:26:13.705Z,14.15
2023-05-10T15:28:40.153Z,17.73
2023-05-10T15:31:06.748Z,15.63
2023-05-10T15:33:33.413Z,15.57
2023-05-10T15:35:59.806Z,17.27
2023-05-10T15:38:28.858Z,15.75
2023-05-10T15:40:58.681Z,15.57
2023-05-10T15:43:25.111Z,14.95
2023-05-10T15:45:51.497Z,14.30
2023-05-10T15:48:18.004Z,14.00
2023-05-10T15:50:46.692Z,13.73
2023-05-10T15:53:17.200Z,15.00
2023-05-10T15:55:44.013Z,17.23
2023-05-10T15:58:11.345Z,18.75
2023-05-10T16:00:50.169Z,17.80
2023-05-10T16:03:16.693Z,20.98
2023-05-10T16:05:43.252Z,18.85
2023-05-10T16:08:09.679Z,21.13
2023-05-10T16:10:39.297Z,24.65
2023-05-10T16:13:05.907Z,24.65
2023-05-10T16:15:34.641Z,23.42
2023-05-10T16:18:01.191Z,24.92
2023-05-10T16:20:27.647Z,23.92
2023-05-10T16:22:54.038Z,24.85
2023-05-10T16:25:20.437Z,23.70
2023-05-10T16:27:47.121Z,26.02
2023-05-10T16:30:16.921Z,26.73
2023-05-10T16:32:43.505Z,25.73
2023-05-10T16:35:10.041Z,25.90
2023-05-10T16:37:39.211Z,31.13
2023-05-10T16:40:06.484Z,32.63
2023-05-10T16:42:32.968Z,37.60
2023-05-10T16:45:08.613Z,38.58
2023-05-10T16:47:43.109Z,42.58
2023-05-10T16:50:10.165Z,41.40
2023-05-10T16:52:36.949Z,50.88
2023-05-10T16:55:04.435Z,45.72
2023-05-10T16:57:33.947Z,39.20
2023-05-10T17:00:00.533Z,44.00
2023-05-10T17:02:27.268Z,58.05
2023-05-10T17:04:55.149Z,50.33
2023-05-10T17:07:23.598Z,40.47
2023-05-10T17:09:51.976Z,48.75
2023-05-10T17:12:18.496Z,46.08
2023-05-10T17:14:44.916Z,43.78
2023-05-10T17:17:11.419Z,59.83
2023-05-10T17:19:38.050Z,66.68
2023-05-10T17:22:04.531Z,49.40
2023-05-10T17:24:31.104Z,46.80
2023-05-10T17:26:57.506Z,65.13
2023-05-10T17:29:24.181Z,58.80
2023-05-10T17:31:50.862Z,66.28
2023-05-10T17:34:17.543Z,59.30
2023-05-10T17:36:44.013Z,73.45
2023-05-10T17:39:10.685Z,78.15
2023-05-10T17:41:37.209Z,80.40
2023-05-10T17:44:04.814Z,73.78
2023-05-10T17:46:31.170Z,88.57
2023-05-10T17:48:57.954Z,79.63
2023-05-10T17:51:24.492Z,81.53
2023-05-10T17:53:50.887Z,85.68
2023-05-10T17:56:17.315Z,82.30
2023-05-10T17:58:45.302Z,55.50
2023-05-10T18:01:12.073Z,63.97
2023-05-10T18:03:38.580Z,67.05
2023-05-10T18:06:05.321Z,62.53
2023-05-10T18:08:33.020Z,58.88
2023-05-10T18:10:59.397Z,67.15
2023-05-10T18:13:26.344Z,72.90
2023-05-10T18:15:53.266Z,51.65
2023-05-10T18:18:19.732Z,53.40
2023-05-10T18:20:46.605Z,51.47
2023-05-10T18:23:14.259Z,47.85
2023-05-10T18:25:40.760Z,52.97
2023-05-10T18:28:08.166Z,47.83
2023-05-10T18:30:34.583Z,45.42
2023-05-10T18:33:01.124Z,49.55
2023-05-10T18:35:27.894Z,61.70
2023-05-10T18:37:54.390Z,56.03
2023-05-10T18:40:20.952Z,65.65
2023-05-10T18:42:50.001Z,94.38
2023-05-10T18:45:16.844Z,75.22
2023-05-10T18:47:43.427Z,93.55
2023-05-10T18:50:10.714Z,81.22
2023-05-10T18:52:37.334Z,75.05
2023-05-10T18:55:04.333Z,64.88
2023-05-10T18:57:30.948Z,58.33
2023-05-10T18:59:57.512Z,50.10
2023-05-10T19:02:26.462Z,51.28
2023-05-10T19:04:53.112Z,58.15
2023-05-10T19:07:19.744Z,57.42
2023-05-10T19:09:46.082Z,52.65
2023-05-10T19:12:12.498Z,62.50
2023-05-10T19:14:38.919Z,79.05
2023-05-10T19:17:05.917Z,77.72
2023-05-10T19:19:32.864Z,74.43
2023-05-10T19:21:59.384Z,94.55
2023-05-10T19:24:26.050Z,93.15
2023-05-10T19:26:52.829Z,86.32
2023-05-10T19:29:19.510Z,102.80
2023-05-10T19:31:47.098Z,100.13
2023-05-10T19:34:13.765Z,103.70
2023-05-10T19:36:40.511Z,95.03
2023-05-10T19:39:06.952Z,92.65
2023-05-10T19:41:36.049Z,90.53
2023-05-10T19:44:06.411Z,100.30
2023-05-10T19:46:33.018Z,99.18
2023-05-10T19:48:59.607Z,107.80
2023-05-10T19:51:26.402Z,110.50
2023-05-10T19:53:52.827Z,107.65
2023-05-10T19:56:19.500Z,113.57
2023-05-10T19:58:46.668Z,118.47
2023-05-10T20:01:13.197Z,113.65
2023-05-10T20:03:39.669Z,112.10
2023-05-10T20:06:06.212Z,110.40
2023-05-10T20:08:32.656Z,104.28
2023-05-10T20:11:00.567Z,107.93
2023-05-10T20:13:26.915Z,109.75
2023-05-10T20:16:00.026Z,110.57
2023-05-10T20:18:26.983Z,101.53
2023-05-10T20:20:55.011Z,108.05
2023-05-10T20:23:21.957Z,109.05
2023-05-10T20:25:48.738Z,103.85
2023-05-10T20:28:15.836Z,100.47
2023-05-10T20:30:42.248Z,99.75
2023-05-10T20:33:09.221Z,110.80
2023-05-10T20:35:35.810Z,97.28
2023-05-10T20:38:02.409Z,96.13
2023-05-10T20:40:28.794Z,87.32
2023-05-10T20:42:55.206Z,93.55
2023-05-10T20:45:21.563Z,102.20
2023-05-10T20:47:48.107Z,119.32
2023-05-10T20:50:14.695Z,108.78
2023-05-10T20:52:41.177Z,106.63
2023-05-10T20:55:07.879Z,100.60
2023-05-10T20:57:34.305Z,109.35
2023-05-10T21:00:00.748Z,108.05
2023-05-10T21:02:27.157Z,112.88
2023-05-10T21:04:55.559Z,116.32
2023-05-10T21:07:23.494Z,113.32
2023-05-10T21:09:49.907Z,113.57
2023-05-10T21:12:16.348Z,114.18
2023-05-10T21:14:44.175Z,111.22
2023-05-10T21:17:10.605Z,111.75
2023-05-10T21:19:37.008Z,120.70
2023-05-10T21:22:03.750Z,143.77
2023-05-10T21:24:30.775Z,153.02
2023-05-10T21:26:57.134Z,164.60
2023-05-10T21:29:23.453Z,168.25
2023-05-10T21:31:49.895Z,128.50
2023-05-10T21:34:17.889Z,111.97
2023-05-10T21:36:45.438Z,114.10
2023-05-10T21:39:11.920Z,120.80
2023-05-10T21:41:38.315Z,121.38
2023-05-10T21:44:05.036Z,120.03
2023-05-10T21:46:31.795Z,134.32
2023-05-10T21:48:58.132Z,137.93
2023-05-10T21:51:24.482Z,155.65
2023-05-10T21:53:50.911Z,148.15
2023-05-10T21:56:17.368Z,138.40
2023-05-10T21:58:43.771Z,167.20
2023-05-10T22:01:10.223Z,189.25
2023-05-10T22:03:36.701Z,170.63
2023-05-10T22:06:03.325Z,147.52
2023-05-10T22:08:29.788Z,124.07
2023-05-10T22:10:56.395Z,118.13
2023-05-10T22:13:22.764Z,140.75
2023-05-10T22:15:49.273Z,123.22
2023-05-10T22:18:15.685Z,141.32
2023-05-10T22:20:47.355Z,155.35
2023-05-10T22:23:13.999Z,145.85
2023-05-10T22:25:40.417Z,171.77
2023-05-10T22:28:09.089Z,166.48
2023-05-10T22:30:35.555Z,161.63
2023-05-10T22:33:01.954Z,204.50
2023-05-10T22:35:28.378Z,200.07
2023-05-10T22:37:54.949Z,159.70
2023-05-10T22:40:21.479Z,150.07
2023-05-10T22:42:47.844Z,130.73
2023-05-10T22:45:14.228Z,144.20
2023-05-10T22:47:40.693Z,134.85
2023-05-10T22:50:08.604Z,128.02
2023-05-10T22:52:35.068Z,110.35
2023-05-10T22:55:01.606Z,132.13
2023-05-10T22:57:28.108Z,128.15
2023-05-10T22:59:54.494Z,135.52
2023-05-10T23:02:21.214Z,180.60
2023-05-10T23:04:47.616Z,257.70
2023-05-10T23:07:13.993Z,287.40
2023-05-10T23:09:40.458Z,345.27
2023-05-10T23:12:06.779Z,397.35
2023-05-10T23:14:33.121Z,502.83
2023-05-10T23:16:59.438Z,486.58
2023-05-10T23:19:25.979Z,510.58
2023-05-10T23:21:52.336Z,512.92
2023-05-10T23:24:18.747Z,553.60
2023-05-10T23:26:46.325Z,578.15
2023-05-10T23:29:12.703Z,606.83
2023-05-10T23:31:45.038Z,633.28
2023-05-10T23:34:12.218Z,665.30
2023-05-10T23:36:38.920Z,685.53
2023-05-10T23:39:05.487Z,706.83
2023-05-10T23:41:31.886Z,690.53
2023-05-10T23:43:58.247Z,700.22
2023-05-10T23:46:24.645Z,707.20
2023-05-10T23:48:50.997Z,698.85
2023-05-10T23:51:17.325Z,696.70
2023-05-10T23:53:43.652Z,704.28
2023-05-10T23:56:10.063Z,704.45
2023-05-10T23:58:36.397Z,693.10
